sensor_id;sensor_type;location;lat;lon;timestamp;P1;durP1;ratioP1;P2;durP2;ratioP2
10653;SDS011;5375;51.250;6.776;2023-05-07T00:02:23;4.07;;;1.50;;
10653;SDS011;5375;51.250;6.776;2023-05-07T00:04:50;1.67;;;1.37;;
10653;SDS011;5375;51.250;6.776;2023-05-07T00:07:17;1.37;;;1.10;;
10653;SDS011;5375;51.250;6.776;2023-05-07T00:09:42;2.70;;;1.35;;
10653;SDS011;5375;51.250;6.776;2023-05-07T00:12:08;1.60;;;1.10;;
10653;SDS011;5375;51.250;6.776;2023-05-07T00:14:34;2.37;;;1.50;;
10653;SDS011;5375;51.250;6.776;2023-05-07T00:17:00;2.10;;;1.50;;
10653;SDS011;5375;51.250;6.776;2023-05-07T00:19:25;1.30;;;1.10;;
10653;SDS011;5375;51.250;6.776;2023-05-07T00:21:51;1.87;;;1.23;;
10653;SDS011;5375;51.250;6.776;2023-05-07T00:24:18;1.30;;;1.20;;
10653;SDS011;5375;51.250;6.776;2023-05-07T00:26:44;2.20;;;1.40;;
10653;SDS011;5375;51.250;6.776;2023-05-07T00:29:10;2.00;;;1.50;;
10653;SDS011;5375;51.250;6.776;2023-05-07T00:31:36;1.87;;;1.50;;
10653;SDS011;5375;51.250;6.776;2023-05-07T00:34:01;3.00;;;1.67;;
10653;SDS011;5375;51.250;6.776;2023-05-07T00:36:27;2.67;;;1.60;;
10653;SDS011;5375;51.250;6.776;2023-05-07T00:38:54;3.57;;;1.40;;
10653;SDS011;5375;51.250;6.776;2023-05-07T00:41:20;2.27;;;1.43;;
10653;SDS011;5375;51.250;6.776;2023-05-07T00:43:46;2.50;;;1.65;;
10653;SDS011;5375;51.250;6.776;2023-05-07T00:46:12;2.10;;;1.35;;
10653;SDS011;5375;51.250;6.776;2023-05-07T00:48:39;3.60;;;1.70;;
10653;SDS011;5375;51.250;6.776;2023-05-07T00:51:05;2.23;;;1.67;;
10653;SDS011;5375;51.250;6.776;2023-05-07T00:53:32;1.63;;;1.40;;
10653;SDS011;5375;51.250;6.776;2023-05-07T00:55:57;1.93;;;1.40;;
10653;SDS011;5375;51.250;6.776;2023-05-07T00:58:23;1.87;;;1.10;;
10653;SDS011;5375;51.250;6.776;2023-05-07T01:00:49;2.67;;;1.53;;
10653;SDS011;5375;51.250;6.776;2023-05-07T01:03:15;2.33;;;1.50;;
10653;SDS011;5375;51.250;6.776;2023-05-07T01:05:41;2.40;;;1.57;;
10653;SDS011;5375;51.250;6.776;2023-05-07T01:08:08;1.67;;;1.40;;
10653;SDS011;5375;51.250;6.776;2023-05-07T01:10:34;2.60;;;1.60;;
10653;SDS011;5375;51.250;6.776;2023-05-07T01:12:59;4.53;;;1.80;;
10653;SDS011;5375;51.250;6.776;2023-05-07T01:15:26;3.93;;;1.37;;
10653;SDS011;5375;51.250;6.776;2023-05-07T01:17:51;3.27;;;1.60;;
10653;SDS011;5375;51.250;6.776;2023-05-07T01:20:17;1.90;;;1.50;;
10653;SDS011;5375;51.250;6.776;2023-05-07T01:22:43;3.13;;;1.60;;
10653;SDS011;5375;51.250;6.776;2023-05-07T01:25:09;3.37;;;1.70;;
10653;SDS011;5375;51.250;6.776;2023-05-07T01:27:35;2.23;;;1.70;;
10653;SDS011;5375;51.250;6.776;2023-05-07T01:30:02;2.30;;;1.67;;
10653;SDS011;5375;51.250;6.776;2023-05-07T01:35:00;2.80;;;1.60;;
10653;SDS011;5375;51.250;6.776;2023-05-07T01:37:27;3.90;;;1.60;;
10653;SDS011;5375;51.250;6.776;2023-05-07T01:39:53;1.87;;;1.40;;
10653;SDS011;5375;51.250;6.776;2023-05-07T01:42:20;3.47;;;1.60;;
10653;SDS011;5375;51.250;6.776;2023-05-07T01:44:46;2.43;;;1.50;;
10653;SDS011;5375;51.250;6.776;2023-05-07T01:47:13;2.83;;;1.50;;
10653;SDS011;5375;51.250;6.776;2023-05-07T01:49:39;2.17;;;1.60;;
10653;SDS011;5375;51.250;6.776;2023-05-07T01:52:05;4.77;;;1.63;;
10653;SDS011;5375;51.250;6.776;2023-05-07T01:54:31;2.93;;;1.50;;
10653;SDS011;5375;51.250;6.776;2023-05-07T01:56:56;1.47;;;1.30;;
10653;SDS011;5375;51.250;6.776;2023-05-07T01:59:22;1.83;;;1.50;;
10653;SDS011;5375;51.250;6.776;2023-05-07T02:01:48;3.30;;;1.77;;
10653;SDS011;5375;51.250;6.776;2023-05-07T02:04:14;3.33;;;1.73;;
10653;SDS011;5375;51.250;6.776;2023-05-07T02:06:39;1.73;;;1.43;;
10653;SDS011;5375;51.250;6.776;2023-05-07T02:09:05;2.83;;;1.80;;
10653;SDS011;5375;51.250;6.776;2023-05-07T02:11:31;2.57;;;1.50;;
10653;SDS011;5375;51.250;6.776;2023-05-07T02:13:57;2.10;;;1.57;;
10653;SDS011;5375;51.250;6.776;2023-05-07T02:16:22;3.40;;;1.63;;
10653;SDS011;5375;51.250;6.776;2023-05-07T02:18:48;2.30;;;1.87;;
10653;SDS011;5375;51.250;6.776;2023-05-07T02:21:14;1.93;;;1.33;;
10653;SDS011;5375;51.250;6.776;2023-05-07T02:23:40;2.50;;;1.53;;
10653;SDS011;5375;51.250;6.776;2023-05-07T02:26:05;1.97;;;1.60;;
10653;SDS011;5375;51.250;6.776;2023-05-07T02:28:31;2.20;;;1.43;;
10653;SDS011;5375;51.250;6.776;2023-05-07T02:30:57;3.10;;;1.80;;
10653;SDS011;5375;51.250;6.776;2023-05-07T02:33:26;2.47;;;1.67;;
10653;SDS011;5375;51.250;6.776;2023-05-07T02:35:51;3.10;;;1.70;;
10653;SDS011;5375;51.250;6.776;2023-05-07T02:38:17;1.90;;;1.43;;
10653;SDS011;5375;51.250;6.776;2023-05-07T02:40:43;2.50;;;1.90;;
10653;SDS011;5375;51.250;6.776;2023-05-07T02:43:08;2.50;;;1.80;;
10653;SDS011;5375;51.250;6.776;2023-05-07T02:45:34;1.87;;;1.43;;
10653;SDS011;5375;51.250;6.776;2023-05-07T02:48:02;2.13;;;1.60;;
10653;SDS011;5375;51.250;6.776;2023-05-07T02:50:28;2.77;;;1.47;;
10653;SDS011;5375;51.250;6.776;2023-05-07T02:52:54;2.03;;;1.47;;
10653;SDS011;5375;51.250;6.776;2023-05-07T02:55:20;2.13;;;1.50;;
10653;SDS011;5375;51.250;6.776;2023-05-07T02:57:45;3.90;;;1.57;;
10653;SDS011;5375;51.250;6.776;2023-05-07T03:00:15;3.37;;;1.40;;
10653;SDS011;5375;51.250;6.776;2023-05-07T03:02:42;3.00;;;1.30;;
10653;SDS011;5375;51.250;6.776;2023-05-07T03:05:17;1.80;;;1.50;;
10653;SDS011;5375;51.250;6.776;2023-05-07T03:10:11;3.07;;;1.70;;
10653;SDS011;5375;51.250;6.776;2023-05-07T03:12:37;2.07;;;1.53;;
10653;SDS011;5375;51.250;6.776;2023-05-07T03:15:03;2.10;;;1.47;;
10653;SDS011;5375;51.250;6.776;2023-05-07T03:17:29;2.20;;;1.60;;
10653;SDS011;5375;51.250;6.776;2023-05-07T03:19:54;2.80;;;1.70;;
10653;SDS011;5375;51.250;6.776;2023-05-07T03:22:20;1.53;;;1.37;;
10653;SDS011;5375;51.250;6.776;2023-05-07T03:24:46;2.23;;;1.50;;
10653;SDS011;5375;51.250;6.776;2023-05-07T03:27:11;2.93;;;1.50;;
10653;SDS011;5375;51.250;6.776;2023-05-07T03:29:37;1.50;;;1.30;;
10653;SDS011;5375;51.250;6.776;2023-05-07T03:32:02;2.47;;;1.50;;
10653;SDS011;5375;51.250;6.776;2023-05-07T03:34:28;1.93;;;1.10;;
10653;SDS011;5375;51.250;6.776;2023-05-07T03:36:54;1.90;;;1.37;;
10653;SDS011;5375;51.250;6.776;2023-05-07T03:39:20;3.87;;;1.70;;
10653;SDS011;5375;51.250;6.776;2023-05-07T03:41:46;2.38;;;1.15;;
10653;SDS011;5375;51.250;6.776;2023-05-07T03:44:12;2.33;;;1.30;;
10653;SDS011;5375;51.250;6.776;2023-05-07T03:46:38;2.87;;;1.20;;
10653;SDS011;5375;51.250;6.776;2023-05-07T03:49:03;2.33;;;1.00;;
10653;SDS011;5375;51.250;6.776;2023-05-07T03:51:29;1.47;;;1.33;;
10653;SDS011;5375;51.250;6.776;2023-05-07T03:53:55;1.50;;;1.20;;
10653;SDS011;5375;51.250;6.776;2023-05-07T03:56:22;2.65;;;1.48;;
10653;SDS011;5375;51.250;6.776;2023-05-07T03:58:51;2.03;;;1.20;;
10653;SDS011;5375;51.250;6.776;2023-05-07T04:01:17;4.13;;;1.93;;
10653;SDS011;5375;51.250;6.776;2023-05-07T04:03:42;1.40;;;1.30;;
10653;SDS011;5375;51.250;6.776;2023-05-07T04:06:08;1.57;;;1.20;;
10653;SDS011;5375;51.250;6.776;2023-05-07T04:08:34;2.80;;;1.30;;
10653;SDS011;5375;51.250;6.776;2023-05-07T04:10:59;1.67;;;1.20;;
10653;SDS011;5375;51.250;6.776;2023-05-07T04:13:25;4.17;;;1.60;;
10653;SDS011;5375;51.250;6.776;2023-05-07T04:15:51;1.70;;;1.20;;
10653;SDS011;5375;51.250;6.776;2023-05-07T04:18:17;2.20;;;1.40;;
10653;SDS011;5375;51.250;6.776;2023-05-07T04:20:43;1.83;;;1.33;;
10653;SDS011;5375;51.250;6.776;2023-05-07T04:23:09;4.27;;;1.30;;
10653;SDS011;5375;51.250;6.776;2023-05-07T04:25:35;1.30;;;1.10;;
10653;SDS011;5375;51.250;6.776;2023-05-07T04:28:00;2.07;;;1.37;;
10653;SDS011;5375;51.250;6.776;2023-05-07T04:30:26;1.30;;;1.10;;
10653;SDS011;5375;51.250;6.776;2023-05-07T04:32:52;2.33;;;1.30;;
10653;SDS011;5375;51.250;6.776;2023-05-07T04:35:18;1.80;;;1.50;;
10653;SDS011;5375;51.250;6.776;2023-05-07T04:37:43;1.40;;;1.27;;
10653;SDS011;5375;51.250;6.776;2023-05-07T04:40:09;2.10;;;1.30;;
10653;SDS011;5375;51.250;6.776;2023-05-07T04:42:35;2.00;;;1.30;;
10653;SDS011;5375;51.250;6.776;2023-05-07T04:45:01;1.93;;;1.33;;
10653;SDS011;5375;51.250;6.776;2023-05-07T04:47:27;2.57;;;1.40;;
10653;SDS011;5375;51.250;6.776;2023-05-07T04:49:53;11.67;;;1.70;;
10653;SDS011;5375;51.250;6.776;2023-05-07T04:52:19;2.60;;;1.20;;
10653;SDS011;5375;51.250;6.776;2023-05-07T04:54:45;2.53;;;1.60;;
10653;SDS011;5375;51.250;6.776;2023-05-07T04:57:10;2.22;;;1.38;;
10653;SDS011;5375;51.250;6.776;2023-05-07T04:59:36;4.60;;;1.57;;
10653;SDS011;5375;51.250;6.776;2023-05-07T05:02:02;6.13;;;1.60;;
10653;SDS011;5375;51.250;6.776;2023-05-07T05:04:29;1.43;;;1.30;;
10653;SDS011;5375;51.250;6.776;2023-05-07T05:09:39;2.17;;;1.40;;
10653;SDS011;5375;51.250;6.776;2023-05-07T05:12:04;1.40;;;1.10;;
10653;SDS011;5375;51.250;6.776;2023-05-07T05:14:32;1.30;;;1.10;;
10653;SDS011;5375;51.250;6.776;2023-05-07T05:16:57;3.03;;;1.60;;
10653;SDS011;5375;51.250;6.776;2023-05-07T05:19:23;2.55;;;1.50;;
10653;SDS011;5375;51.250;6.776;2023-05-07T05:21:49;2.25;;;1.55;;
10653;SDS011;5375;51.250;6.776;2023-05-07T05:24:14;1.55;;;1.33;;
10653;SDS011;5375;51.250;6.776;2023-05-07T05:26:40;1.70;;;1.40;;
10653;SDS011;5375;51.250;6.776;2023-05-07T05:29:05;1.57;;;1.30;;
10653;SDS011;5375;51.250;6.776;2023-05-07T05:31:32;2.00;;;1.20;;
10653;SDS011;5375;51.250;6.776;2023-05-07T05:33:58;4.10;;;1.10;;
10653;SDS011;5375;51.250;6.776;2023-05-07T05:36:24;2.63;;;1.37;;
10653;SDS011;5375;51.250;6.776;2023-05-07T05:38:50;2.40;;;1.60;;
10653;SDS011;5375;51.250;6.776;2023-05-07T05:41:16;1.77;;;1.25;;
10653;SDS011;5375;51.250;6.776;2023-05-07T05:43:42;1.63;;;1.30;;
10653;SDS011;5375;51.250;6.776;2023-05-07T05:46:10;1.30;;;1.20;;
10653;SDS011;5375;51.250;6.776;2023-05-07T05:48:36;1.83;;;1.20;;
10653;SDS011;5375;51.250;6.776;2023-05-07T05:51:02;1.77;;;1.30;;
10653;SDS011;5375;51.250;6.776;2023-05-07T05:53:28;2.42;;;1.48;;
10653;SDS011;5375;51.250;6.776;2023-05-07T05:55:54;2.03;;;1.48;;
10653;SDS011;5375;51.250;6.776;2023-05-07T05:58:19;1.40;;;1.10;;
10653;SDS011;5375;51.250;6.776;2023-05-07T06:00:45;1.67;;;1.27;;
10653;SDS011;5375;51.250;6.776;2023-05-07T06:03:13;1.93;;;1.40;;
10653;SDS011;5375;51.250;6.776;2023-05-07T06:05:38;2.53;;;1.27;;
10653;SDS011;5375;51.250;6.776;2023-05-07T06:08:04;1.80;;;1.37;;
10653;SDS011;5375;51.250;6.776;2023-05-07T06:10:30;1.50;;;1.30;;
10653;SDS011;5375;51.250;6.776;2023-05-07T06:12:57;3.13;;;1.20;;
10653;SDS011;5375;51.250;6.776;2023-05-07T06:15:23;1.97;;;1.37;;
10653;SDS011;5375;51.250;6.776;2023-05-07T06:17:49;2.38;;;1.30;;
10653;SDS011;5375;51.250;6.776;2023-05-07T06:20:16;1.67;;;1.10;;
10653;SDS011;5375;51.250;6.776;2023-05-07T06:22:41;1.83;;;1.50;;
10653;SDS011;5375;51.250;6.776;2023-05-07T06:25:07;1.57;;;1.20;;
10653;SDS011;5375;51.250;6.776;2023-05-07T06:27:33;2.13;;;1.40;;
10653;SDS011;5375;51.250;6.776;2023-05-07T06:29:59;1.70;;;1.20;;
10653;SDS011;5375;51.250;6.776;2023-05-07T06:32:25;2.53;;;1.33;;
10653;SDS011;5375;51.250;6.776;2023-05-07T06:34:51;1.43;;;1.20;;
10653;SDS011;5375;51.250;6.776;2023-05-07T06:37:16;1.97;;;1.20;;
10653;SDS011;5375;51.250;6.776;2023-05-07T06:39:51;2.40;;;1.17;;
10653;SDS011;5375;51.250;6.776;2023-05-07T06:42:16;2.40;;;1.30;;
10653;SDS011;5375;51.250;6.776;2023-05-07T06:44:42;1.77;;;1.40;;
10653;SDS011;5375;51.250;6.776;2023-05-07T06:47:07;2.80;;;1.30;;
10653;SDS011;5375;51.250;6.776;2023-05-07T06:49:33;1.90;;;1.40;;
10653;SDS011;5375;51.250;6.776;2023-05-07T06:51:59;2.50;;;1.20;;
10653;SDS011;5375;51.250;6.776;2023-05-07T06:54:24;3.33;;;1.10;;
10653;SDS011;5375;51.250;6.776;2023-05-07T06:56:50;1.90;;;1.40;;
10653;SDS011;5375;51.250;6.776;2023-05-07T06:59:18;2.00;;;1.20;;
10653;SDS011;5375;51.250;6.776;2023-05-07T07:01:44;1.40;;;1.27;;
10653;SDS011;5375;51.250;6.776;2023-05-07T07:04:09;1.80;;;1.30;;
10653;SDS011;5375;51.250;6.776;2023-05-07T07:06:35;1.70;;;1.20;;
10653;SDS011;5375;51.250;6.776;2023-05-07T07:09:01;2.13;;;1.23;;
10653;SDS011;5375;51.250;6.776;2023-05-07T07:11:26;1.90;;;1.30;;
10653;SDS011;5375;51.250;6.776;2023-05-07T07:13:53;1.93;;;1.40;;
10653;SDS011;5375;51.250;6.776;2023-05-07T07:16:21;3.00;;;1.50;;
10653;SDS011;5375;51.250;6.776;2023-05-07T07:18:48;4.63;;;1.30;;
10653;SDS011;5375;51.250;6.776;2023-05-07T07:21:18;5.33;;;1.67;;
10653;SDS011;5375;51.250;6.776;2023-05-07T07:23:45;2.47;;;1.30;;
10653;SDS011;5375;51.250;6.776;2023-05-07T07:26:11;2.93;;;1.33;;
10653;SDS011;5375;51.250;6.776;2023-05-07T07:28:43;2.27;;;1.27;;
10653;SDS011;5375;51.250;6.776;2023-05-07T07:31:11;2.67;;;1.23;;
10653;SDS011;5375;51.250;6.776;2023-05-07T07:33:38;1.13;;;1.00;;
10653;SDS011;5375;51.250;6.776;2023-05-07T07:36:05;2.30;;;1.30;;
10653;SDS011;5375;51.250;6.776;2023-05-07T07:38:34;2.27;;;1.20;;
10653;SDS011;5375;51.250;6.776;2023-05-07T07:41:01;1.63;;;1.03;;
10653;SDS011;5375;51.250;6.776;2023-05-07T07:43:29;1.40;;;1.17;;
10653;SDS011;5375;51.250;6.776;2023-05-07T07:45:56;2.20;;;1.30;;
10653;SDS011;5375;51.250;6.776;2023-05-07T07:48:24;1.70;;;1.20;;
10653;SDS011;5375;51.250;6.776;2023-05-07T07:50:52;2.15;;;1.30;;
10653;SDS011;5375;51.250;6.776;2023-05-07T07:53:20;2.40;;;1.10;;
10653;SDS011;5375;51.250;6.776;2023-05-07T07:55:48;2.85;;;1.30;;
10653;SDS011;5375;51.250;6.776;2023-05-07T07:58:15;2.37;;;1.00;;
10653;SDS011;5375;51.250;6.776;2023-05-07T08:00:44;1.60;;;1.07;;
10653;SDS011;5375;51.250;6.776;2023-05-07T08:03:12;2.40;;;1.00;;
10653;SDS011;5375;51.250;6.776;2023-05-07T08:05:41;1.33;;;1.20;;
10653;SDS011;5375;51.250;6.776;2023-05-07T08:08:09;1.67;;;1.20;;
10653;SDS011;5375;51.250;6.776;2023-05-07T08:10:36;2.73;;;1.13;;
10653;SDS011;5375;51.250;6.776;2023-05-07T08:13:04;1.40;;;1.20;;
10653;SDS011;5375;51.250;6.776;2023-05-07T08:15:32;1.90;;;1.13;;
10653;SDS011;5375;51.250;6.776;2023-05-07T08:20:29;1.97;;;1.30;;
10653;SDS011;5375;51.250;6.776;2023-05-07T08:22:55;3.70;;;1.10;;
10653;SDS011;5375;51.250;6.776;2023-05-07T08:25:23;2.07;;;1.10;;
10653;SDS011;5375;51.250;6.776;2023-05-07T08:27:50;2.93;;;1.20;;
10653;SDS011;5375;51.250;6.776;2023-05-07T08:30:17;1.60;;;1.20;;
10653;SDS011;5375;51.250;6.776;2023-05-07T08:32:45;2.60;;;1.05;;
10653;SDS011;5375;51.250;6.776;2023-05-07T08:35:12;2.72;;;1.15;;
10653;SDS011;5375;51.250;6.776;2023-05-07T08:37:40;1.40;;;1.07;;
10653;SDS011;5375;51.250;6.776;2023-05-07T08:40:06;1.20;;;1.00;;
10653;SDS011;5375;51.250;6.776;2023-05-07T08:42:37;1.38;;;1.20;;
10653;SDS011;5375;51.250;6.776;2023-05-07T08:45:09;1.97;;;1.20;;
10653;SDS011;5375;51.250;6.776;2023-05-07T08:47:40;1.40;;;1.17;;
10653;SDS011;5375;51.250;6.776;2023-05-07T08:50:13;3.07;;;1.20;;
10653;SDS011;5375;51.250;6.776;2023-05-07T08:52:40;1.00;;;0.90;;
10653;SDS011;5375;51.250;6.776;2023-05-07T08:55:08;2.57;;;1.20;;
10653;SDS011;5375;51.250;6.776;2023-05-07T08:57:36;1.53;;;1.20;;
10653;SDS011;5375;51.250;6.776;2023-05-07T09:00:04;1.17;;;1.08;;
10653;SDS011;5375;51.250;6.776;2023-05-07T09:02:34;1.30;;;1.10;;
10653;SDS011;5375;51.250;6.776;2023-05-07T09:05:02;1.37;;;1.03;;
10653;SDS011;5375;51.250;6.776;2023-05-07T09:10:51;2.47;;;0.90;;
10653;SDS011;5375;51.250;6.776;2023-05-07T09:13:17;1.93;;;1.40;;
10653;SDS011;5375;51.250;6.776;2023-05-07T09:15:43;1.60;;;1.10;;
10653;SDS011;5375;51.250;6.776;2023-05-07T09:18:09;0.77;;;0.70;;
10653;SDS011;5375;51.250;6.776;2023-05-07T09:20:36;1.43;;;1.07;;
10653;SDS011;5375;51.250;6.776;2023-05-07T09:23:02;2.00;;;1.20;;
10653;SDS011;5375;51.250;6.776;2023-05-07T09:27:58;1.65;;;1.10;;
10653;SDS011;5375;51.250;6.776;2023-05-07T09:30:31;1.37;;;1.00;;
10653;SDS011;5375;51.250;6.776;2023-05-07T09:32:57;1.17;;;1.03;;
10653;SDS011;5375;51.250;6.776;2023-05-07T09:35:24;1.10;;;0.97;;
10653;SDS011;5375;51.250;6.776;2023-05-07T09:37:52;1.43;;;1.00;;
10653;SDS011;5375;51.250;6.776;2023-05-07T09:40:20;1.40;;;1.00;;
10653;SDS011;5375;51.250;6.776;2023-05-07T09:42:47;2.07;;;1.20;;
10653;SDS011;5375;51.250;6.776;2023-05-07T09:45:14;1.27;;;1.10;;
10653;SDS011;5375;51.250;6.776;2023-05-07T09:47:41;1.10;;;1.00;;
10653;SDS011;5375;51.250;6.776;2023-05-07T09:50:10;1.20;;;0.93;;
10653;SDS011;5375;51.250;6.776;2023-05-07T09:52:38;2.60;;;1.47;;
10653;SDS011;5375;51.250;6.776;2023-05-07T09:55:05;1.03;;;0.93;;
10653;SDS011;5375;51.250;6.776;2023-05-07T09:57:32;1.10;;;1.00;;
10653;SDS011;5375;51.250;6.776;2023-05-07T09:59:58;1.20;;;1.10;;
10653;SDS011;5375;51.250;6.776;2023-05-07T10:02:27;1.90;;;1.07;;
10653;SDS011;5375;51.250;6.776;2023-05-07T10:04:55;1.40;;;1.10;;
10653;SDS011;5375;51.250;6.776;2023-05-07T10:07:21;1.83;;;1.17;;
10653;SDS011;5375;51.250;6.776;2023-05-07T10:09:47;1.00;;;0.90;;
10653;SDS011;5375;51.250;6.776;2023-05-07T10:12:15;2.83;;;1.10;;
10653;SDS011;5375;51.250;6.776;2023-05-07T10:14:42;1.20;;;1.10;;
10653;SDS011;5375;51.250;6.776;2023-05-07T10:17:08;1.53;;;0.90;;
10653;SDS011;5375;51.250;6.776;2023-05-07T10:19:36;1.23;;;1.00;;
10653;SDS011;5375;51.250;6.776;2023-05-07T10:22:04;1.42;;;1.10;;
10653;SDS011;5375;51.250;6.776;2023-05-07T10:24:34;1.40;;;1.10;;
10653;SDS011;5375;51.250;6.776;2023-05-07T10:27:02;1.90;;;1.10;;
10653;SDS011;5375;51.250;6.776;2023-05-07T10:29:37;1.30;;;1.00;;
10653;SDS011;5375;51.250;6.776;2023-05-07T10:35:04;1.10;;;1.00;;
10653;SDS011;5375;51.250;6.776;2023-05-07T10:37:35;1.30;;;1.00;;
10653;SDS011;5375;51.250;6.776;2023-05-07T10:40:01;1.70;;;1.00;;
10653;SDS011;5375;51.250;6.776;2023-05-07T10:42:27;1.63;;;1.00;;
10653;SDS011;5375;51.250;6.776;2023-05-07T10:44:53;1.37;;;1.03;;
10653;SDS011;5375;51.250;6.776;2023-05-07T10:47:18;1.53;;;0.90;;
10653;SDS011;5375;51.250;6.776;2023-05-07T10:52:19;0.97;;;0.90;;
10653;SDS011;5375;51.250;6.776;2023-05-07T10:54:46;1.03;;;0.90;;
10653;SDS011;5375;51.250;6.776;2023-05-07T11:00:47;1.63;;;0.90;;
10653;SDS011;5375;51.250;6.776;2023-05-07T11:05:29;1.00;;;0.90;;
10653;SDS011;5375;51.250;6.776;2023-05-07T11:07:56;1.03;;;0.90;;
10653;SDS011;5375;51.250;6.776;2023-05-07T11:16:19;1.10;;;0.90;;
10653;SDS011;5375;51.250;6.776;2023-05-07T11:18:49;2.40;;;1.10;;
10653;SDS011;5375;51.250;6.776;2023-05-07T11:21:35;1.20;;;0.98;;
10653;SDS011;5375;51.250;6.776;2023-05-07T11:24:07;1.33;;;0.93;;
10653;SDS011;5375;51.250;6.776;2023-05-07T11:26:52;1.00;;;0.90;;
10653;SDS011;5375;51.250;6.776;2023-05-07T11:29:19;1.45;;;1.10;;
10653;SDS011;5375;51.250;6.776;2023-05-07T11:31:49;1.30;;;0.93;;
10653;SDS011;5375;51.250;6.776;2023-05-07T11:34:20;1.00;;;0.90;;
10653;SDS011;5375;51.250;6.776;2023-05-07T11:36:50;1.50;;;0.90;;
10653;SDS011;5375;51.250;6.776;2023-05-07T11:39:23;1.70;;;1.37;;
10653;SDS011;5375;51.250;6.776;2023-05-07T11:41:49;6.15;;;1.15;;
10653;SDS011;5375;51.250;6.776;2023-05-07T11:44:15;2.30;;;0.98;;
10653;SDS011;5375;51.250;6.776;2023-05-07T11:46:42;2.27;;;1.00;;
10653;SDS011;5375;51.250;6.776;2023-05-07T11:49:11;1.67;;;1.00;;
10653;SDS011;5375;51.250;6.776;2023-05-07T11:51:37;2.57;;;0.97;;
10653;SDS011;5375;51.250;6.776;2023-05-07T11:54:04;1.00;;;0.90;;
10653;SDS011;5375;51.250;6.776;2023-05-07T11:56:34;1.10;;;0.90;;
10653;SDS011;5375;51.250;6.776;2023-05-07T11:59:04;1.47;;;0.97;;
10653;SDS011;5375;51.250;6.776;2023-05-07T12:01:30;2.07;;;1.10;;
10653;SDS011;5375;51.250;6.776;2023-05-07T12:03:55;2.23;;;0.73;;
10653;SDS011;5375;51.250;6.776;2023-05-07T12:06:21;2.97;;;1.17;;
10653;SDS011;5375;51.250;6.776;2023-05-07T12:08:47;1.43;;;1.20;;
10653;SDS011;5375;51.250;6.776;2023-05-07T12:11:14;2.20;;;0.90;;
10653;SDS011;5375;51.250;6.776;2023-05-07T12:13:49;1.08;;;0.80;;
10653;SDS011;5375;51.250;6.776;2023-05-07T12:16:16;3.17;;;1.00;;
10653;SDS011;5375;51.250;6.776;2023-05-07T12:18:45;1.25;;;0.85;;
10653;SDS011;5375;51.250;6.776;2023-05-07T12:21:14;1.52;;;1.05;;
10653;SDS011;5375;51.250;6.776;2023-05-07T12:23:42;1.53;;;1.00;;
10653;SDS011;5375;51.250;6.776;2023-05-07T12:26:07;0.87;;;0.80;;
10653;SDS011;5375;51.250;6.776;2023-05-07T12:31:40;1.23;;;0.90;;
10653;SDS011;5375;51.250;6.776;2023-05-07T12:34:06;0.90;;;0.80;;
10653;SDS011;5375;51.250;6.776;2023-05-07T12:36:37;1.45;;;0.80;;
10653;SDS011;5375;51.250;6.776;2023-05-07T12:39:05;1.20;;;0.80;;
10653;SDS011;5375;51.250;6.776;2023-05-07T12:41:35;0.80;;;0.80;;
10653;SDS011;5375;51.250;6.776;2023-05-07T12:44:17;1.25;;;0.98;;
10653;SDS011;5375;51.250;6.776;2023-05-07T12:46:43;1.10;;;1.00;;
10653;SDS011;5375;51.250;6.776;2023-05-07T12:49:08;0.80;;;0.75;;
10653;SDS011;5375;51.250;6.776;2023-05-07T12:51:35;1.08;;;0.88;;
10653;SDS011;5375;51.250;6.776;2023-05-07T12:54:01;0.90;;;0.85;;
10653;SDS011;5375;51.250;6.776;2023-05-07T12:56:26;1.55;;;1.02;;
10653;SDS011;5375;51.250;6.776;2023-05-07T12:58:57;1.65;;;1.05;;
10653;SDS011;5375;51.250;6.776;2023-05-07T13:01:28;1.00;;;0.90;;
10653;SDS011;5375;51.250;6.776;2023-05-07T13:04:00;1.33;;;0.93;;
10653;SDS011;5375;51.250;6.776;2023-05-07T13:06:27;2.08;;;1.08;;
10653;SDS011;5375;51.250;6.776;2023-05-07T13:08:53;1.73;;;0.97;;
10653;SDS011;5375;51.250;6.776;2023-05-07T13:11:18;1.33;;;1.00;;
10653;SDS011;5375;51.250;6.776;2023-05-07T13:13:45;2.63;;;0.95;;
10653;SDS011;5375;51.250;6.776;2023-05-07T13:16:11;1.58;;;1.10;;
10653;SDS011;5375;51.250;6.776;2023-05-07T13:18:38;1.20;;;0.98;;
10653;SDS011;5375;51.250;6.776;2023-05-07T13:21:04;1.23;;;0.80;;
10653;SDS011;5375;51.250;6.776;2023-05-07T13:26:32;1.40;;;0.95;;
10653;SDS011;5375;51.250;6.776;2023-05-07T13:28:58;2.13;;;0.70;;
10653;SDS011;5375;51.250;6.776;2023-05-07T13:31:24;2.03;;;0.63;;
10653;SDS011;5375;51.250;6.776;2023-05-07T13:33:50;1.43;;;1.00;;
10653;SDS011;5375;51.250;6.776;2023-05-07T13:36:17;0.70;;;0.70;;
10653;SDS011;5375;51.250;6.776;2023-05-07T13:38:43;1.30;;;0.88;;
10653;SDS011;5375;51.250;6.776;2023-05-07T13:41:09;1.17;;;0.90;;
10653;SDS011;5375;51.250;6.776;2023-05-07T13:43:34;1.67;;;1.13;;
10653;SDS011;5375;51.250;6.776;2023-05-07T13:46:00;1.40;;;1.00;;
10653;SDS011;5375;51.250;6.776;2023-05-07T13:48:27;1.47;;;1.00;;
10653;SDS011;5375;51.250;6.776;2023-05-07T13:50:56;1.35;;;1.10;;
10653;SDS011;5375;51.250;6.776;2023-05-07T13:53:22;2.75;;;1.00;;
10653;SDS011;5375;51.250;6.776;2023-05-07T13:55:48;1.17;;;0.98;;
10653;SDS011;5375;51.250;6.776;2023-05-07T13:58:13;1.75;;;0.90;;
10653;SDS011;5375;51.250;6.776;2023-05-07T14:00:39;1.00;;;0.87;;
10653;SDS011;5375;51.250;6.776;2023-05-07T14:03:11;1.43;;;0.90;;
10653;SDS011;5375;51.250;6.776;2023-05-07T14:05:40;1.40;;;0.98;;
10653;SDS011;5375;51.250;6.776;2023-05-07T14:08:08;1.92;;;1.05;;
10653;SDS011;5375;51.250;6.776;2023-05-07T14:10:35;3.00;;;1.37;;
10653;SDS011;5375;51.250;6.776;2023-05-07T14:13:03;1.90;;;1.07;;
10653;SDS011;5375;51.250;6.776;2023-05-07T14:15:32;1.38;;;1.13;;
10653;SDS011;5375;51.250;6.776;2023-05-07T14:17:59;1.37;;;1.07;;
10653;SDS011;5375;51.250;6.776;2023-05-07T14:20:27;1.47;;;1.00;;
10653;SDS011;5375;51.250;6.776;2023-05-07T14:22:56;1.20;;;1.00;;
10653;SDS011;5375;51.250;6.776;2023-05-07T14:25:23;1.65;;;1.23;;
10653;SDS011;5375;51.250;6.776;2023-05-07T14:27:52;1.63;;;0.90;;
10653;SDS011;5375;51.250;6.776;2023-05-07T14:30:19;1.07;;;0.97;;
10653;SDS011;5375;51.250;6.776;2023-05-07T14:32:45;1.25;;;1.10;;
10653;SDS011;5375;51.250;6.776;2023-05-07T14:35:13;1.25;;;1.02;;
10653;SDS011;5375;51.250;6.776;2023-05-07T14:37:39;1.70;;;1.03;;
10653;SDS011;5375;51.250;6.776;2023-05-07T14:40:05;1.43;;;1.33;;
10653;SDS011;5375;51.250;6.776;2023-05-07T14:42:31;2.60;;;1.27;;
10653;SDS011;5375;51.250;6.776;2023-05-07T14:44:56;1.67;;;1.13;;
10653;SDS011;5375;51.250;6.776;2023-05-07T14:47:22;1.50;;;1.07;;
10653;SDS011;5375;51.250;6.776;2023-05-07T14:49:47;1.20;;;1.10;;
10653;SDS011;5375;51.250;6.776;2023-05-07T14:52:14;2.10;;;1.30;;
10653;SDS011;5375;51.250;6.776;2023-05-07T14:54:40;2.30;;;1.20;;
10653;SDS011;5375;51.250;6.776;2023-05-07T14:57:06;1.33;;;1.10;;
10653;SDS011;5375;51.250;6.776;2023-05-07T14:59:34;1.40;;;1.20;;
10653;SDS011;5375;51.250;6.776;2023-05-07T15:02:00;2.20;;;1.20;;
10653;SDS011;5375;51.250;6.776;2023-05-07T15:04:26;3.97;;;1.37;;
10653;SDS011;5375;51.250;6.776;2023-05-07T15:06:54;2.13;;;1.40;;
10653;SDS011;5375;51.250;6.776;2023-05-07T15:12:18;2.57;;;1.30;;
10653;SDS011;5375;51.250;6.776;2023-05-07T15:14:49;1.65;;;1.45;;
10653;SDS011;5375;51.250;6.776;2023-05-07T15:17:14;2.80;;;1.60;;
10653;SDS011;5375;51.250;6.776;2023-05-07T15:19:40;2.58;;;1.48;;
10653;SDS011;5375;51.250;6.776;2023-05-07T15:22:06;3.30;;;1.40;;
10653;SDS011;5375;51.250;6.776;2023-05-07T15:24:31;1.70;;;1.35;;
10653;SDS011;5375;51.250;6.776;2023-05-07T15:26:57;6.38;;;1.67;;
10653;SDS011;5375;51.250;6.776;2023-05-07T15:29:23;3.40;;;1.75;;
10653;SDS011;5375;51.250;6.776;2023-05-07T15:31:48;2.85;;;1.75;;
10653;SDS011;5375;51.250;6.776;2023-05-07T15:34:14;3.50;;;1.70;;
10653;SDS011;5375;51.250;6.776;2023-05-07T15:36:41;1.60;;;1.50;;
10653;SDS011;5375;51.250;6.776;2023-05-07T15:39:07;3.08;;;1.50;;
10653;SDS011;5375;51.250;6.776;2023-05-07T15:41:32;3.35;;;1.90;;